EJU907T LIMC-LIBR
Flight info
| Callsign | EJU907T |
|---|---|
| Flight time | 1h 18m |
| Altitude | 35000 |
| Route | VAKON DCT IBUPU DCT NEVMO DCT LISKO DCT UVOKA/N0337F190 L612 DOLON |
| Aircraft | A320/M-SDE2E3FGHIJ1RWXYZ/LB1 |
Departure
| Time | 2026-04-21 18:27 |
|---|---|
| Airport | Milan Malpensa International Airport (LIMC) |
Arrival
| Time | 2026-04-21 19:46 |
|---|---|
| Airport | Brindisi Airport (LIBR) |
| Time | Latitude | Longitude | Altitude | Speed | Heading |
|---|---|---|---|---|---|
| 2026-04-21 18:07 | 45.64096 | 8.72369 | 761 ft | 0 kts | 78° |
| 2026-04-21 18:22 | 45.64107 | 8.72447 | 759 ft | 20 kts | 78° |
| 2026-04-21 18:22 | 45.64135 | 8.72659 | 760 ft | 22 kts | 73° |
| 2026-04-21 18:22 | 45.64239 | 8.72706 | 762 ft | 15 kts | 351° |
| 2026-04-21 18:23 | 45.64332 | 8.72679 | 763 ft | 15 kts | 352° |
| 2026-04-21 18:23 | 45.64487 | 8.72654 | 767 ft | 27 kts | 348° |
| 2026-04-21 18:23 | 45.64668 | 8.72603 | 770 ft | 26 kts | 349° |
| 2026-04-21 18:23 | 45.64838 | 8.72608 | 771 ft | 25 kts | 39° |
| 2026-04-21 18:24 | 45.64851 | 8.72624 | 771 ft | 0 kts | 43° |
| 2026-04-21 18:26 | 45.64852 | 8.72626 | 771 ft | 2 kts | 43° |
| 2026-04-21 18:26 | 45.64928 | 8.72726 | 771 ft | 26 kts | 43° |
| 2026-04-21 18:26 | 45.64935 | 8.72810 | 771 ft | 6 kts | 155° |
| 2026-04-21 18:27 | 45.64767 | 8.72870 | 771 ft | 58 kts | 170° |
| 2026-04-21 18:27 | 45.64141 | 8.73042 | 757 ft | 122 kts | 169° |
| 2026-04-21 18:27 | 45.63131 | 8.73320 | 779 ft | 166 kts | 169° |
| 2026-04-21 18:27 | 45.62020 | 8.73591 | 1456 ft | 162 kts | 170° |
| 2026-04-21 18:28 | 45.60884 | 8.73650 | 2072 ft | 167 kts | 178° |
| 2026-04-21 18:28 | 45.59656 | 8.73626 | 2378 ft | 188 kts | 178° |
| 2026-04-21 18:28 | 45.58290 | 8.73605 | 2648 ft | 211 kts | 178° |
| 2026-04-21 18:28 | 45.56735 | 8.73580 | 3002 ft | 233 kts | 178° |
| 2026-04-21 18:29 | 45.55083 | 8.73548 | 3693 ft | 242 kts | 179° |
| 2026-04-21 18:29 | 45.53363 | 8.73513 | 4227 ft | 244 kts | 179° |
| 2026-04-21 18:29 | 45.51660 | 8.73496 | 5137 ft | 245 kts | 174° |
| 2026-04-21 18:29 | 45.50051 | 8.74135 | 5955 ft | 246 kts | 149° |
| 2026-04-21 18:30 | 45.48761 | 8.75731 | 6707 ft | 250 kts | 125° |
| 2026-04-21 18:30 | 45.48049 | 8.78006 | 7413 ft | 256 kts | 101° |
| 2026-04-21 18:30 | 45.47930 | 8.80582 | 7969 ft | 271 kts | 89° |
| 2026-04-21 18:30 | 45.47935 | 8.83345 | 8529 ft | 284 kts | 88° |
| 2026-04-21 18:31 | 45.47949 | 8.86196 | 9289 ft | 290 kts | 89° |
| 2026-04-21 18:31 | 45.47964 | 8.89098 | 10057 ft | 296 kts | 88° |
| 2026-04-21 18:31 | 45.47977 | 8.92125 | 10403 ft | 317 kts | 88° |
| 2026-04-21 18:31 | 45.47991 | 8.95370 | 10723 ft | 336 kts | 88° |
| 2026-04-21 18:32 | 45.48003 | 8.98741 | 11374 ft | 343 kts | 88° |
| 2026-04-21 18:32 | 45.48012 | 9.02170 | 12070 ft | 349 kts | 88° |
| 2026-04-21 18:32 | 45.48018 | 9.05662 | 12741 ft | 355 kts | 88° |
| 2026-04-21 18:32 | 45.48022 | 9.09209 | 13398 ft | 361 kts | 88° |
| 2026-04-21 18:33 | 45.48023 | 9.12819 | 14015 ft | 367 kts | 88° |
| 2026-04-21 18:33 | 45.48024 | 9.16486 | 14598 ft | 373 kts | 88° |
| 2026-04-21 18:33 | 45.48025 | 9.20199 | 15183 ft | 378 kts | 88° |
| 2026-04-21 18:33 | 45.48026 | 9.23966 | 15766 ft | 383 kts | 88° |
| 2026-04-21 18:34 | 45.48026 | 9.27785 | 16349 ft | 388 kts | 88° |
| 2026-04-21 18:34 | 45.48026 | 9.31650 | 16925 ft | 393 kts | 88° |
| 2026-04-21 18:34 | 45.48025 | 9.35564 | 17496 ft | 398 kts | 88° |
| 2026-04-21 18:34 | 45.48023 | 9.39531 | 18093 ft | 403 kts | 88° |
| 2026-04-21 18:35 | 45.48020 | 9.42184 | 18430 ft | 407 kts | 87° |
| 2026-04-21 18:35 | 45.48015 | 9.47618 | 18908 ft | 413 kts | 87° |
| 2026-04-21 18:35 | 45.48008 | 9.51721 | 18988 ft | 414 kts | 87° |
| 2026-04-21 18:35 | 45.47999 | 9.55827 | 18994 ft | 415 kts | 87° |
| 2026-04-21 18:36 | 45.47988 | 9.59935 | 19007 ft | 415 kts | 87° |
| 2026-04-21 18:36 | 45.47978 | 9.64043 | 19011 ft | 415 kts | 87° |
| 2026-04-21 18:36 | 45.47969 | 9.68125 | 19480 ft | 419 kts | 86° |
| 2026-04-21 18:36 | 45.47957 | 9.72355 | 19984 ft | 424 kts | 86° |
| 2026-04-21 18:37 | 45.47940 | 9.76576 | 20479 ft | 429 kts | 86° |
| 2026-04-21 18:37 | 45.47921 | 9.80851 | 20930 ft | 434 kts | 85° |
| 2026-04-21 18:37 | 45.47898 | 9.85114 | 21393 ft | 439 kts | 85° |
| 2026-04-21 18:37 | 45.47872 | 9.89492 | 21848 ft | 444 kts | 85° |
| 2026-04-21 18:38 | 45.47818 | 9.93922 | 22283 ft | 451 kts | 89° |
| 2026-04-21 18:38 | 45.47380 | 9.98399 | 22726 ft | 462 kts | 99° |
| 2026-04-21 18:38 | 45.46427 | 10.02816 | 23167 ft | 472 kts | 110° |
| 2026-04-21 18:38 | 45.44969 | 10.07039 | 23573 ft | 479 kts | 119° |
| 2026-04-21 18:39 | 45.43297 | 10.11160 | 23955 ft | 482 kts | 119° |
| 2026-04-21 18:39 | 45.41615 | 10.15312 | 24399 ft | 485 kts | 120° |
| 2026-04-21 18:39 | 45.39929 | 10.19484 | 24813 ft | 488 kts | 120° |
| 2026-04-21 18:39 | 45.38233 | 10.23675 | 25220 ft | 490 kts | 120° |
| 2026-04-21 18:40 | 45.37082 | 10.26512 | 25494 ft | 491 kts | 120° |
| 2026-04-21 18:40 | 45.35389 | 10.30678 | 25874 ft | 494 kts | 120° |
| 2026-04-21 18:40 | 45.33668 | 10.34909 | 26314 ft | 496 kts | 120° |
| 2026-04-21 18:40 | 45.31932 | 10.39164 | 26689 ft | 498 kts | 120° |
| 2026-04-21 18:41 | 45.30188 | 10.43428 | 26946 ft | 500 kts | 120° |
| 2026-04-21 18:41 | 45.28441 | 10.47692 | 26985 ft | 498 kts | 120° |
| 2026-04-21 18:41 | 45.26700 | 10.51943 | 26998 ft | 498 kts | 120° |
| 2026-04-21 18:41 | 45.24959 | 10.56186 | 26997 ft | 497 kts | 120° |
| 2026-04-21 18:42 | 45.23214 | 10.60423 | 26999 ft | 497 kts | 120° |
| 2026-04-21 18:42 | 45.21466 | 10.64656 | 27002 ft | 498 kts | 120° |
| 2026-04-21 18:42 | 45.19709 | 10.68906 | 27362 ft | 500 kts | 121° |
| 2026-04-21 18:42 | 45.17947 | 10.73167 | 27750 ft | 502 kts | 121° |
| 2026-04-21 18:43 | 45.16172 | 10.77439 | 28122 ft | 504 kts | 121° |
| 2026-04-21 18:43 | 45.14371 | 10.81712 | 28524 ft | 506 kts | 122° |
| 2026-04-21 18:43 | 45.12548 | 10.85990 | 28826 ft | 509 kts | 122° |
| 2026-04-21 18:43 | 45.10704 | 10.90288 | 29141 ft | 512 kts | 122° |
| 2026-04-21 18:44 | 45.08848 | 10.94599 | 29466 ft | 514 kts | 122° |
| 2026-04-21 18:44 | 45.06987 | 10.98925 | 29790 ft | 516 kts | 122° |
| 2026-04-21 18:44 | 45.05124 | 11.03271 | 30097 ft | 518 kts | 122° |
| 2026-04-21 18:44 | 45.03258 | 11.07633 | 30360 ft | 518 kts | 122° |
| 2026-04-21 18:45 | 45.01395 | 11.11981 | 30718 ft | 517 kts | 122° |
| 2026-04-21 18:45 | 44.99528 | 11.16326 | 31038 ft | 517 kts | 122° |
| 2026-04-21 18:45 | 44.97653 | 11.20672 | 31294 ft | 518 kts | 122° |
| 2026-04-21 18:45 | 44.95775 | 11.25015 | 31597 ft | 518 kts | 122° |
| 2026-04-21 18:46 | 44.93902 | 11.29346 | 31965 ft | 516 kts | 122° |
| 2026-04-21 18:46 | 44.92032 | 11.33665 | 32324 ft | 515 kts | 122° |
| 2026-04-21 18:46 | 44.90166 | 11.37968 | 32681 ft | 513 kts | 122° |
| 2026-04-21 18:46 | 44.88310 | 11.42182 | 33034 ft | 512 kts | 123° |
| 2026-04-21 18:47 | 44.86394 | 11.46400 | 33393 ft | 510 kts | 124° |
| 2026-04-21 18:47 | 44.84452 | 11.50572 | 33756 ft | 509 kts | 125° |
| 2026-04-21 18:47 | 44.82496 | 11.54719 | 34105 ft | 507 kts | 125° |
| 2026-04-21 18:47 | 44.80544 | 11.58848 | 34394 ft | 506 kts | 125° |
| 2026-04-21 18:48 | 44.78600 | 11.62978 | 34643 ft | 505 kts | 125° |
| 2026-04-21 18:48 | 44.76670 | 11.67107 | 34906 ft | 505 kts | 124° |
| 2026-04-21 18:48 | 44.74749 | 11.71235 | 35014 ft | 502 kts | 124° |
| 2026-04-21 18:49 | 44.70968 | 11.79379 | 35032 ft | 495 kts | 124° |
| 2026-04-21 18:49 | 44.67833 | 11.86101 | 35033 ft | 494 kts | 124° |
| 2026-04-21 18:50 | 44.63409 | 11.95528 | 35033 ft | 494 kts | 125° |
| 2026-04-21 18:50 | 44.59613 | 12.03570 | 35026 ft | 494 kts | 125° |
| 2026-04-21 18:51 | 44.55813 | 12.11610 | 35028 ft | 494 kts | 125° |
| 2026-04-21 18:51 | 44.52012 | 12.19643 | 35017 ft | 494 kts | 125° |
| 2026-04-21 18:52 | 44.48206 | 12.27668 | 35023 ft | 494 kts | 125° |
| 2026-04-21 18:52 | 44.44399 | 12.35679 | 35025 ft | 494 kts | 125° |
| 2026-04-21 18:53 | 44.40602 | 12.43625 | 35026 ft | 494 kts | 125° |
| 2026-04-21 18:53 | 44.36782 | 12.51603 | 35033 ft | 494 kts | 125° |
| 2026-04-21 18:54 | 44.32958 | 12.59575 | 35031 ft | 494 kts | 126° |
| 2026-04-21 18:54 | 44.29128 | 12.67530 | 35030 ft | 493 kts | 126° |
| 2026-04-21 18:55 | 44.25942 | 12.74133 | 34998 ft | 493 kts | 126° |
| 2026-04-21 18:55 | 44.21459 | 12.83410 | 35018 ft | 493 kts | 126° |
| 2026-04-21 18:56 | 44.17614 | 12.91324 | 35020 ft | 493 kts | 126° |
| 2026-04-21 18:56 | 44.13788 | 12.99174 | 35025 ft | 493 kts | 126° |
| 2026-04-21 18:57 | 44.09937 | 13.07074 | 35025 ft | 493 kts | 126° |
| 2026-04-21 18:57 | 44.06082 | 13.14971 | 35046 ft | 493 kts | 126° |
| 2026-04-21 18:58 | 44.02223 | 13.22852 | 35040 ft | 493 kts | 126° |
| 2026-04-21 18:58 | 43.98356 | 13.30712 | 35038 ft | 493 kts | 126° |
| 2026-04-21 18:59 | 43.94479 | 13.38559 | 35032 ft | 493 kts | 126° |
| 2026-04-21 18:59 | 43.90602 | 13.46403 | 35027 ft | 493 kts | 126° |
| 2026-04-21 19:00 | 43.86727 | 13.54224 | 35026 ft | 492 kts | 126° |
| 2026-04-21 19:00 | 43.82844 | 13.62041 | 35024 ft | 492 kts | 126° |
| 2026-04-21 19:01 | 43.78958 | 13.69841 | 35026 ft | 492 kts | 127° |
| 2026-04-21 19:01 | 43.75067 | 13.77627 | 35011 ft | 492 kts | 127° |
| 2026-04-21 19:02 | 43.71191 | 13.85351 | 35013 ft | 492 kts | 127° |
| 2026-04-21 19:02 | 43.67285 | 13.93115 | 35023 ft | 492 kts | 127° |
| 2026-04-21 19:03 | 43.63380 | 14.00871 | 35032 ft | 492 kts | 127° |
| 2026-04-21 19:03 | 43.59470 | 14.08622 | 35027 ft | 492 kts | 127° |
| 2026-04-21 19:04 | 43.55148 | 14.15855 | 35022 ft | 486 kts | 140° |
| 2026-04-21 19:04 | 43.50658 | 14.21728 | 35022 ft | 487 kts | 140° |
| 2026-04-21 19:05 | 43.45735 | 14.28139 | 35029 ft | 487 kts | 140° |
| 2026-04-21 19:05 | 43.40811 | 14.34535 | 35029 ft | 486 kts | 140° |
| 2026-04-21 19:06 | 43.35892 | 14.40918 | 35027 ft | 486 kts | 140° |
| 2026-04-21 19:06 | 43.30984 | 14.47286 | 35024 ft | 486 kts | 140° |
| 2026-04-21 19:07 | 43.26144 | 14.53764 | 35001 ft | 486 kts | 139° |
| 2026-04-21 19:07 | 43.21351 | 14.60317 | 34982 ft | 488 kts | 139° |
| 2026-04-21 19:08 | 43.16529 | 14.66883 | 35002 ft | 489 kts | 139° |
| 2026-04-21 19:08 | 43.11730 | 14.73377 | 35014 ft | 487 kts | 139° |
| 2026-04-21 19:09 | 43.06906 | 14.79875 | 35016 ft | 487 kts | 139° |
| 2026-04-21 19:09 | 43.02088 | 14.86375 | 34998 ft | 486 kts | 139° |
| 2026-04-21 19:10 | 42.97271 | 14.92851 | 35009 ft | 486 kts | 139° |
| 2026-04-21 19:10 | 42.92452 | 14.99304 | 35005 ft | 485 kts | 139° |
| 2026-04-21 19:11 | 42.87628 | 15.05748 | 35008 ft | 485 kts | 139° |
| 2026-04-21 19:11 | 42.82811 | 15.12191 | 35005 ft | 485 kts | 139° |
| 2026-04-21 19:12 | 42.78806 | 15.17530 | 34991 ft | 485 kts | 139° |
| 2026-04-21 19:12 | 42.73171 | 15.25014 | 35002 ft | 484 kts | 139° |
| 2026-04-21 19:13 | 42.68348 | 15.31398 | 35005 ft | 484 kts | 139° |
| 2026-04-21 19:13 | 42.63531 | 15.37780 | 35014 ft | 483 kts | 139° |
| 2026-04-21 19:14 | 42.58722 | 15.44137 | 35009 ft | 482 kts | 139° |
| 2026-04-21 19:14 | 42.53912 | 15.50464 | 34996 ft | 481 kts | 139° |
| 2026-04-21 19:15 | 42.49142 | 15.56724 | 35009 ft | 480 kts | 140° |
| 2026-04-21 19:15 | 42.44344 | 15.63001 | 35009 ft | 479 kts | 140° |
| 2026-04-21 19:16 | 42.39552 | 15.69266 | 35010 ft | 479 kts | 140° |
| 2026-04-21 19:16 | 42.34766 | 15.75519 | 35010 ft | 478 kts | 140° |
| 2026-04-21 19:17 | 42.27584 | 15.84854 | 34988 ft | 477 kts | 140° |
| 2026-04-21 19:17 | 42.22806 | 15.91063 | 34991 ft | 477 kts | 140° |
| 2026-04-21 19:18 | 42.18025 | 15.97257 | 34991 ft | 477 kts | 140° |
| 2026-04-21 19:18 | 42.13235 | 16.03436 | 34995 ft | 476 kts | 140° |
| 2026-04-21 19:19 | 42.08451 | 16.09592 | 34968 ft | 476 kts | 139° |
| 2026-04-21 19:19 | 42.03672 | 16.15744 | 34974 ft | 475 kts | 140° |
| 2026-04-21 19:20 | 41.98900 | 16.21873 | 34976 ft | 474 kts | 140° |
| 2026-04-21 19:20 | 41.94123 | 16.27983 | 34975 ft | 474 kts | 140° |
| 2026-04-21 19:21 | 41.89375 | 16.34050 | 34972 ft | 474 kts | 140° |
| 2026-04-21 19:21 | 41.84584 | 16.40167 | 34166 ft | 480 kts | 140° |
| 2026-04-21 19:22 | 41.82166 | 16.43249 | 33531 ft | 477 kts | 140° |
| 2026-04-21 19:22 | 41.79771 | 16.46297 | 32983 ft | 473 kts | 140° |
| 2026-04-21 19:22 | 41.77390 | 16.49321 | 32406 ft | 470 kts | 140° |
| 2026-04-21 19:22 | 41.75026 | 16.52319 | 31847 ft | 467 kts | 140° |
| 2026-04-21 19:23 | 41.72673 | 16.55303 | 31302 ft | 464 kts | 140° |
| 2026-04-21 19:23 | 41.70345 | 16.58251 | 30995 ft | 456 kts | 140° |
| 2026-04-21 19:23 | 41.65805 | 16.63989 | 30969 ft | 447 kts | 140° |
| 2026-04-21 19:24 | 41.61278 | 16.69682 | 30967 ft | 446 kts | 140° |
| 2026-04-21 19:24 | 41.59011 | 16.72531 | 30337 ft | 449 kts | 140° |
| 2026-04-21 19:24 | 41.56723 | 16.75409 | 28996 ft | 455 kts | 140° |
| 2026-04-21 19:25 | 41.54454 | 16.78265 | 27909 ft | 453 kts | 139° |
| 2026-04-21 19:25 | 41.52173 | 16.81134 | 26956 ft | 448 kts | 139° |
| 2026-04-21 19:25 | 41.49913 | 16.83976 | 26134 ft | 446 kts | 139° |
| 2026-04-21 19:25 | 41.47657 | 16.86807 | 25623 ft | 444 kts | 139° |
| 2026-04-21 19:26 | 41.45420 | 16.89610 | 25098 ft | 442 kts | 139° |
| 2026-04-21 19:26 | 41.43186 | 16.92401 | 24674 ft | 437 kts | 139° |
| 2026-04-21 19:26 | 41.40959 | 16.95181 | 24137 ft | 437 kts | 139° |
| 2026-04-21 19:26 | 41.38756 | 16.97932 | 23745 ft | 432 kts | 139° |
| 2026-04-21 19:27 | 41.36579 | 17.00646 | 22980 ft | 426 kts | 139° |
| 2026-04-21 19:27 | 41.34428 | 17.03325 | 22228 ft | 421 kts | 139° |
| 2026-04-21 19:27 | 41.32300 | 17.05974 | 21853 ft | 415 kts | 139° |
| 2026-04-21 19:27 | 41.30201 | 17.08587 | 21282 ft | 412 kts | 140° |
| 2026-04-21 19:28 | 41.28136 | 17.11153 | 20685 ft | 401 kts | 140° |
| 2026-04-21 19:28 | 41.26108 | 17.13668 | 20236 ft | 398 kts | 140° |
| 2026-04-21 19:28 | 41.24087 | 17.16170 | 19745 ft | 397 kts | 140° |
| 2026-04-21 19:28 | 41.22069 | 17.18667 | 19271 ft | 396 kts | 140° |
| 2026-04-21 19:29 | 41.20067 | 17.21149 | 18824 ft | 394 kts | 140° |
| 2026-04-21 19:29 | 41.18076 | 17.23614 | 18521 ft | 388 kts | 140° |
| 2026-04-21 19:29 | 41.16114 | 17.26043 | 17933 ft | 383 kts | 140° |
| 2026-04-21 19:29 | 41.14185 | 17.28431 | 17311 ft | 373 kts | 140° |
| 2026-04-21 19:30 | 41.12321 | 17.30736 | 16873 ft | 360 kts | 140° |
| 2026-04-21 19:30 | 41.10540 | 17.32937 | 16469 ft | 352 kts | 140° |
| 2026-04-21 19:30 | 41.08744 | 17.35147 | 16045 ft | 352 kts | 140° |
| 2026-04-21 19:30 | 41.06947 | 17.37351 | 15629 ft | 352 kts | 140° |
| 2026-04-21 19:31 | 41.05151 | 17.39553 | 15214 ft | 352 kts | 140° |
| 2026-04-21 19:31 | 41.03334 | 17.41782 | 14795 ft | 351 kts | 140° |
| 2026-04-21 19:31 | 41.01567 | 17.43952 | 14384 ft | 351 kts | 140° |
| 2026-04-21 19:31 | 40.99778 | 17.46151 | 13973 ft | 351 kts | 140° |
| 2026-04-21 19:32 | 40.97990 | 17.48348 | 13522 ft | 350 kts | 139° |
| 2026-04-21 19:32 | 40.96209 | 17.50534 | 13104 ft | 348 kts | 140° |
| 2026-04-21 19:32 | 40.94436 | 17.52707 | 12682 ft | 346 kts | 140° |
| 2026-04-21 19:32 | 40.92673 | 17.54864 | 12260 ft | 344 kts | 140° |
| 2026-04-21 19:33 | 40.91511 | 17.56284 | 11979 ft | 343 kts | 140° |
| 2026-04-21 19:33 | 40.89179 | 17.59137 | 11438 ft | 340 kts | 138° |
| 2026-04-21 19:33 | 40.87608 | 17.61476 | 11025 ft | 340 kts | 132° |
| 2026-04-21 19:33 | 40.86091 | 17.63842 | 10630 ft | 337 kts | 132° |
| 2026-04-21 19:34 | 40.84581 | 17.66192 | 10254 ft | 334 kts | 132° |
| 2026-04-21 19:34 | 40.83083 | 17.68527 | 9906 ft | 330 kts | 132° |
| 2026-04-21 19:34 | 40.81622 | 17.70808 | 9735 ft | 319 kts | 133° |
| 2026-04-21 19:34 | 40.80200 | 17.73025 | 8991 ft | 317 kts | 133° |
| 2026-04-21 19:35 | 40.79260 | 17.74484 | 8598 ft | 312 kts | 133° |
| 2026-04-21 19:35 | 40.76527 | 17.78721 | 7742 ft | 300 kts | 133° |
| 2026-04-21 19:35 | 40.75169 | 17.80817 | 7309 ft | 300 kts | 133° |
| 2026-04-21 19:36 | 40.73815 | 17.82906 | 6855 ft | 299 kts | 133° |
| 2026-04-21 19:36 | 40.72024 | 17.85671 | 6250 ft | 300 kts | 133° |
| 2026-04-21 19:36 | 40.71109 | 17.87081 | 5927 ft | 299 kts | 133° |
| 2026-04-21 19:36 | 40.69766 | 17.89151 | 5459 ft | 292 kts | 133° |
| 2026-04-21 19:37 | 40.68477 | 17.91142 | 5017 ft | 279 kts | 133° |
| 2026-04-21 19:37 | 40.67155 | 17.92900 | 4583 ft | 262 kts | 151° |
| 2026-04-21 19:37 | 40.65497 | 17.93478 | 4200 ft | 239 kts | 189° |
| 2026-04-21 19:37 | 40.64079 | 17.92651 | 3854 ft | 223 kts | 223° |
| 2026-04-21 19:38 | 40.63088 | 17.91135 | 3495 ft | 215 kts | 235° |
| 2026-04-21 19:38 | 40.62269 | 17.89515 | 3121 ft | 211 kts | 238° |
| 2026-04-21 19:38 | 40.61486 | 17.87905 | 2733 ft | 207 kts | 237° |
| 2026-04-21 19:38 | 40.60731 | 17.86321 | 2380 ft | 201 kts | 245° |
| 2026-04-21 19:39 | 40.60637 | 17.84576 | 1993 ft | 192 kts | 294° |
| 2026-04-21 19:39 | 40.61506 | 17.83485 | 1805 ft | 164 kts | 345° |
| 2026-04-21 19:39 | 40.62498 | 17.83795 | 1631 ft | 144 kts | 44° |
| 2026-04-21 19:39 | 40.62933 | 17.84940 | 1482 ft | 142 kts | 83° |
| 2026-04-21 19:40 | 40.62710 | 17.86184 | 1330 ft | 143 kts | 120° |
| 2026-04-21 19:40 | 40.61895 | 17.86836 | 1244 ft | 143 kts | 176° |
| 2026-04-21 19:40 | 40.60966 | 17.86434 | 1206 ft | 144 kts | 225° |
| 2026-04-21 19:40 | 40.60589 | 17.85269 | 1175 ft | 141 kts | 276° |
| 2026-04-21 19:41 | 40.60996 | 17.84159 | 1144 ft | 136 kts | 323° |
| 2026-04-21 19:41 | 40.61868 | 17.83818 | 1114 ft | 134 kts | 9° |
| 2026-04-21 19:41 | 40.62649 | 17.84440 | 1076 ft | 136 kts | 55° |
| 2026-04-21 19:41 | 40.62849 | 17.85638 | 1093 ft | 136 kts | 91° |
| 2026-04-21 19:42 | 40.62696 | 17.86892 | 1252 ft | 143 kts | 108° |
| 2026-04-21 19:42 | 40.61955 | 17.87659 | 1185 ft | 145 kts | 177° |
| 2026-04-21 19:42 | 40.61044 | 17.87126 | 1238 ft | 147 kts | 227° |
| 2026-04-21 19:42 | 40.60542 | 17.85974 | 1222 ft | 145 kts | 259° |
| 2026-04-21 19:43 | 40.60623 | 17.84717 | 1203 ft | 139 kts | 300° |
| 2026-04-21 19:43 | 40.61295 | 17.83889 | 1202 ft | 134 kts | 342° |
| 2026-04-21 19:43 | 40.62207 | 17.83933 | 1207 ft | 135 kts | 26° |
| 2026-04-21 19:43 | 40.62750 | 17.84879 | 1188 ft | 136 kts | 85° |
| 2026-04-21 19:44 | 40.62790 | 17.86149 | 1222 ft | 141 kts | 92° |
| 2026-04-21 19:44 | 40.62734 | 17.87423 | 1158 ft | 140 kts | 90° |
| 2026-04-21 19:44 | 40.62781 | 17.88686 | 1017 ft | 138 kts | 78° |
| 2026-04-21 19:44 | 40.63083 | 17.89868 | 712 ft | 137 kts | 62° |
| 2026-04-21 19:45 | 40.63610 | 17.90916 | 559 ft | 139 kts | 51° |
| 2026-04-21 19:45 | 40.64206 | 17.91924 | 403 ft | 140 kts | 54° |
| 2026-04-21 19:45 | 40.64804 | 17.92944 | 211 ft | 140 kts | 54° |
| 2026-04-21 19:45 | 40.65396 | 17.93957 | 43 ft | 137 kts | 54° |
| 2026-04-21 19:46 | 40.65886 | 17.94799 | 34 ft | 84 kts | 52° |
| 2026-04-21 19:46 | 40.66087 | 17.95144 | 34 ft | 31 kts | 53° |
| 2026-04-21 19:46 | 40.66199 | 17.95338 | 33 ft | 17 kts | 52° |
| 2026-04-21 19:46 | 40.66303 | 17.95359 | 33 ft | 22 kts | 312° |
| 2026-04-21 19:47 | 40.66279 | 17.95133 | 33 ft | 28 kts | 232° |
| 2026-04-21 19:47 | 40.66163 | 17.94934 | 33 ft | 27 kts | 232° |
| 2026-04-21 19:47 | 40.66051 | 17.94749 | 33 ft | 13 kts | 211° |
| 2026-04-21 19:47 | 40.65964 | 17.94828 | 34 ft | 25 kts | 136° |
| 2026-04-21 19:48 | 40.65829 | 17.94995 | 34 ft | 27 kts | 136° |
| 2026-04-21 19:48 | 40.65678 | 17.95141 | 33 ft | 26 kts | 181° |
| 2026-04-21 19:48 | 40.65534 | 17.95015 | 34 ft | 26 kts | 179° |
| 2026-04-21 19:48 | 40.65350 | 17.95016 | 33 ft | 27 kts | 178° |
| 2026-04-21 19:49 | 40.65283 | 17.94923 | 33 ft | 24 kts | 261° |
| 2026-04-21 19:49 | 40.65266 | 17.94684 | 33 ft | 28 kts | 269° |
| 2026-04-21 19:49 | 40.65290 | 17.94574 | 32 ft | 4 kts | 318° |
| 2026-04-21 19:49 | 40.65298 | 17.94565 | 33 ft | 0 kts | 319° |